Time;durP1;ratioP1;P1;durP2;ratioP2;P2;SDS_P1;SDS_P2;PMS_P1;PMS_P2;Temp;Humidity;BMP_temperature;BMP_pressure;BME280_temperature;BME280_humidity;BME280_pressure;Samples;Min_cycle;Max_cycle;Signal;HPM_P1;HPM_P2
2021/12/18 00:02:22;;;;;;;1.88;0.45;;;;;;;6.73;55.69;103967.03;4963157;28;20625;-71
2021/12/18 00:04:47;;;;;;;0.93;0.20;;;;;;;6.74;55.65;103963.56;4964654;28;20054;-72
2021/12/18 00:07:13;;;;;;;1.17;0.50;;;;;;;6.83;55.31;103968.13;4962578;28;20046;-72
2021/12/18 00:09:40;;;;;;;0.80;0.10;;;;;;;6.81;55.38;103965.47;4965617;28;20039;-71
2021/12/18 00:12:06;;;;;;;1.00;0.20;;;;;;;6.93;55.45;103964.03;4966687;28;20497;-71
2021/12/18 00:14:32;;;;;;;1.42;0.25;;;;;;;6.67;55.75;103962.53;4968506;28;20091;-71
2021/12/18 00:16:57;;;;;;;1.55;0.30;;;;;;;6.86;55.56;103963.91;4965369;28;20125;-72
2021/12/18 00:19:26;;;;;;;2.65;0.30;;;;;;;7.01;55.27;103965.09;4984347;28;20169;-70
2021/12/18 00:21:53;;;;;;;1.25;0.40;;;;;;;7.00;55.38;103960.72;4948422;28;21128;-71
2021/12/18 00:24:19;;;;;;;1.23;0.28;;;;;;;6.76;55.92;103963.63;4967193;28;20035;-72
2021/12/18 00:26:45;;;;;;;3.35;0.47;;;;;;;7.04;55.49;103957.34;4949372;28;20043;-71
2021/12/18 00:29:11;;;;;;;1.23;0.20;;;;;;;6.88;55.41;103953.50;4950661;28;20050;-71
2021/12/18 00:31:37;;;;;;;1.50;0.35;;;;;;;7.02;55.35;103954.75;4968287;28;20703;-71
2021/12/18 00:34:03;;;;;;;1.40;0.28;;;;;;;7.06;55.31;103956.53;4969606;28;20034;-71
2021/12/18 00:36:28;;;;;;;1.35;0.20;;;;;;;6.96;55.96;103958.91;4964638;28;20081;-71
2021/12/18 00:38:54;;;;;;;3.95;0.40;;;;;;;6.96;55.71;103951.13;4969947;28;20113;-70
2021/12/18 00:41:47;;;;;;;4.55;0.50;;;;;;;6.85;55.86;103961.25;4967880;28;20516;-71
2021/12/18 00:44:14;;;;;;;4.35;0.68;;;;;;;6.91;55.97;103961.41;4967016;28;20121;-70
2021/12/18 00:46:45;;;;;;;1.60;0.75;;;;;;;6.93;55.96;103953.63;4962213;28;20027;-71
2021/12/18 00:49:14;;;;;;;2.38;0.45;;;;;;;6.96;55.80;103954.59;4964322;28;20473;-71
2021/12/18 00:51:40;;;;;;;2.58;0.50;;;;;;;6.97;55.77;103951.13;4965794;28;20108;-71
2021/12/18 00:54:05;;;;;;;2.25;0.40;;;;;;;7.01;55.52;103946.91;4969680;28;20121;-71
2021/12/18 00:56:31;;;;;;;2.55;0.38;;;;;;;6.99;55.83;103951.19;4980327;28;20049;-71
2021/12/18 00:58:57;;;;;;;2.42;0.60;;;;;;;7.06;55.51;103951.34;4966565;28;20038;-71
2021/12/18 01:01:26;;;;;;;1.88;0.32;;;;;;;7.06;55.95;103946.16;4954894;28;20041;-72
2021/12/18 01:03:52;;;;;;;2.60;0.50;;;;;;;7.04;55.82;103947.84;4966837;28;21774;-72
2021/12/18 01:06:19;;;;;;;3.08;0.35;;;;;;;7.01;55.76;103945.16;4980069;28;20373;-71
2021/12/18 01:08:45;;;;;;;0.57;0.10;;;;;;;7.08;55.52;103943.59;4928990;28;1095532;-71
2021/12/18 01:13:48;;;;;;;2.63;0.45;;;;;;;7.02;55.76;103953.84;4966306;28;20034;-72
2021/12/18 01:16:20;;;;;;;1.95;0.30;;;;;;;7.08;55.64;103956.59;4969930;28;20054;-71
2021/12/18 01:24:14;;;;;;;0.93;0.28;;;;;;;7.08;55.85;103951.41;4966078;28;20047;-71
2021/12/18 01:26:39;;;;;;;1.80;0.30;;;;;;;7.02;56.15;103949.53;4967063;28;20054;-71
2021/12/18 01:29:05;;;;;;;1.67;0.65;;;;;;;7.05;55.64;103951.34;4984867;28;20034;-71
2021/12/18 01:31:30;;;;;;;1.30;0.30;;;;;;;7.04;56.18;103957.34;4965430;28;20108;-71
2021/12/18 01:33:56;;;;;;;1.58;0.35;;;;;;;7.08;55.63;103951.41;4967489;28;20034;-71
2021/12/18 01:36:22;;;;;;;2.35;0.52;;;;;;;6.90;56.20;103952.69;4967628;28;20125;-70
2021/12/18 01:38:47;;;;;;;1.25;0.28;;;;;;;6.57;57.18;103954.44;4963741;28;20485;-71
2021/12/18 01:41:15;;;;;;;2.72;0.85;;;;;;;6.84;56.34;103947.38;4981581;28;20115;-71
2021/12/18 01:52:20;;;;;;;2.53;0.20;;;;;;;6.85;56.12;103951.72;4906401;29;20103;-71
2021/12/18 01:54:47;;;;;;;4.25;0.40;;;;;;;7.09;55.43;103953.16;4950851;28;20131;-71
2021/12/18 01:57:12;;;;;;;0.50;0.10;;;;;;;7.11;55.83;103949.75;4964861;28;20062;-71
2021/12/18 01:59:46;;;;;;;1.33;0.50;;;;;;;7.03;56.16;103945.22;4955061;28;20070;-71
2021/12/18 02:02:12;;;;;;;3.05;0.47;;;;;;;6.98;56.13;103942.50;4963298;28;20517;-71
2021/12/18 02:04:37;;;;;;;0.95;0.32;;;;;;;6.91;56.29;103933.66;4963247;28;20039;-71
2021/12/18 02:07:04;;;;;;;1.00;0.22;;;;;;;6.95;56.16;103942.41;4966696;28;20108;-70
2021/12/18 02:10:07;;;;;;;2.22;0.43;;;;;;;6.70;56.89;103936.59;4964365;28;20031;-71
2021/12/18 02:12:28;;;;;;;1.65;0.57;;;;;;;7.00;56.14;103939.91;4963512;28;20082;-71
2021/12/18 02:23:14;;;;;;;1.65;0.30;;;;;;;6.87;56.50;103944.84;4964971;28;20656;-71
2021/12/18 02:25:40;;;;;;;1.08;0.43;;;;;;;6.95;56.23;103938.94;4964915;28;20094;-71
2021/12/18 02:28:12;;;;;;;1.50;0.43;;;;;;;6.82;56.78;103935.16;4963149;28;20038;-70
2021/12/18 02:30:37;;;;;;;;;;;;;;;6.91;56.19;103931.06;4968286;28;20150;-72
2021/12/18 02:33:03;;;;;;;2.22;0.20;;;;;;;6.64;57.32;103935.56;4965497;28;20375;-71
2021/12/18 02:35:29;;;;;;;1.80;0.20;;;;;;;6.76;56.84;103935.91;4967620;28;20061;-71
2021/12/18 02:38:11;;;;;;;2.03;0.20;;;;;;;6.98;56.19;103931.22;4938384;28;20046;-71
2021/12/18 02:43:18;;;;;;;1.15;0.25;;;;;;;7.00;56.17;103935.63;4965547;28;20034;-71
2021/12/18 02:45:44;;;;;;;4.75;0.22;;;;;;;6.92;56.51;103937.16;4949209;28;20591;-71
2021/12/18 02:48:10;;;;;;;2.08;0.60;;;;;;;6.95;56.17;103929.41;4967110;28;20039;-71
2021/12/18 02:50:39;;;;;;;1.50;0.30;;;;;;;6.98;56.13;103931.22;4952370;28;20038;-71
2021/12/18 02:53:07;;;;;;;4.22;0.52;;;;;;;6.98;56.13;103923.44;4966591;28;20456;-71
2021/12/18 02:55:33;;;;;;;2.65;0.47;;;;;;;6.87;56.95;103926.63;4964064;28;20046;-71
2021/12/18 02:57:58;;;;;;;5.53;0.52;;;;;;;6.91;56.81;103925.00;4952334;28;20128;-72
2021/12/18 03:00:26;;;;;;;2.60;0.40;;;;;;;6.72;57.27;103923.66;4969933;28;20027;-71
2021/12/18 03:02:52;;;;;;;1.85;0.43;;;;;;;6.88;56.50;103920.56;4963193;28;20050;-71
2021/12/18 03:05:24;;;;;;;1.20;0.25;;;;;;;6.73;56.67;103916.72;4963435;28;20037;-70
2021/12/18 03:07:57;;;;;;;0.73;0.10;;;;;;;6.57;57.66;103905.94;4964703;28;20146;-71
2021/12/18 03:24:28;;;;;;;0.20;0.00;;;;;;;6.93;56.17;103893.81;4968461;28;20058;-72
2021/12/18 03:26:53;;;;;;;1.80;0.08;;;;;;;6.93;56.58;103896.41;4963798;28;20114;-72
2021/12/18 03:29:19;;;;;;;0.73;0.10;;;;;;;6.77;56.88;103892.56;4966127;28;20193;-72
2021/12/18 03:31:44;;;;;;;0.65;0.20;;;;;;;6.85;56.71;103894.50;4965328;28;20049;-72
2021/12/18 03:34:10;;;;;;;0.65;0.10;;;;;;;6.95;56.36;103898.19;4966048;28;20649;-72
2021/12/18 03:36:38;;;;;;;0.50;0.10;;;;;;;6.94;56.67;103893.00;4978984;28;20501;-72
2021/12/18 03:39:04;;;;;;;1.15;0.30;;;;;;;7.07;56.06;103892.44;4963176;28;20039;-72
2021/12/18 03:41:30;;;;;;;0.32;0.10;;;;;;;7.09;56.37;103898.53;4969669;28;20041;-72
2021/12/18 03:43:55;;;;;;;0.30;0.10;;;;;;;7.06;56.14;103890.66;4968162;28;20027;-72
2021/12/18 03:46:21;;;;;;;1.50;0.03;;;;;;;7.16;56.17;103895.25;4970133;28;20070;-72
2021/12/18 03:48:46;;;;;;;0.60;0.32;;;;;;;7.06;56.23;103888.06;4954218;28;20400;-72
2021/12/18 03:51:12;;;;;;;1.38;0.30;;;;;;;7.04;56.27;103884.53;4969893;28;20392;-72
2021/12/18 03:53:40;;;;;;;0.52;0.10;;;;;;;7.11;56.52;103889.94;4971445;28;20783;-72
2021/12/18 03:56:09;;;;;;;0.30;0.00;;;;;;;7.14;56.25;103896.91;4976957;28;20733;-72
2021/12/18 03:58:39;;;;;;;1.17;0.10;;;;;;;7.16;56.21;103889.16;4970601;28;20563;-72
2021/12/18 04:01:05;;;;;;;0.40;0.10;;;;;;;7.11;56.46;103892.53;4968882;28;20031;-72
2021/12/18 04:03:30;;;;;;;1.35;0.15;;;;;;;7.11;56.32;103887.34;4975462;28;20035;-72
2021/12/18 04:05:56;;;;;;;1.63;0.17;;;;;;;7.00;56.60;103887.91;4968528;28;20057;-72
2021/12/18 04:08:21;;;;;;;1.38;0.20;;;;;;;6.81;56.87;103890.06;4965726;28;20130;-72
2021/12/18 04:10:47;;;;;;;1.70;0.20;;;;;;;7.16;56.35;103892.63;4998138;22;20141;-70
2021/12/18 04:13:12;;;;;;;5.22;0.40;;;;;;;7.09;56.21;103893.34;4984688;28;20433;-70
2021/12/18 04:15:39;;;;;;;1.15;0.20;;;;;;;7.06;56.25;103899.31;5000676;28;20044;-70
2021/12/18 04:18:04;;;;;;;0.77;0.20;;;;;;;7.12;56.47;103898.59;4997696;28;20133;-69
2021/12/18 04:20:30;;;;;;;1.05;0.15;;;;;;;7.17;56.14;103896.97;4984376;28;20117;-70
2021/12/18 04:22:56;;;;;;;0.90;0.20;;;;;;;7.01;56.86;103892.28;4999073;28;20026;-69
2021/12/18 04:25:22;;;;;;;5.30;0.40;;;;;;;6.89;57.10;103887.69;4984913;28;20038;-70
2021/12/18 04:27:48;;;;;;;0.82;0.20;;;;;;;6.89;57.24;103891.16;4980581;28;20077;-71
2021/12/18 04:30:14;;;;;;;5.47;0.35;;;;;;;7.17;56.44;103889.19;5000062;28;20509;-69
2021/12/18 04:32:39;;;;;;;4.85;0.28;;;;;;;7.01;56.91;103895.75;4998945;28;20046;-73
2021/12/18 04:35:05;;;;;;;3.72;0.30;;;;;;;7.17;56.78;103891.78;5006527;28;20152;-73
2021/12/18 04:37:31;;;;;;;3.55;0.10;;;;;;;7.04;57.17;103893.25;5000963;28;20081;-73
2021/12/18 04:39:57;;;;;;;2.72;0.20;;;;;;;6.92;57.26;103892.94;4983039;28;20033;-73
2021/12/18 04:42:22;;;;;;;2.00;0.38;;;;;;;7.00;57.58;103887.91;5000638;28;20061;-72
2021/12/18 04:44:48;;;;;;;2.13;0.40;;;;;;;7.20;56.53;103883.16;4998683;28;20342;-71
2021/12/18 04:47:13;;;;;;;3.53;0.20;;;;;;;7.08;57.18;103886.38;4983557;28;20096;-72
2021/12/18 04:49:39;;;;;;;0.95;0.20;;;;;;;7.18;56.54;103885.75;4983492;28;20691;-71
2021/12/18 04:52:05;;;;;;;1.13;0.20;;;;;;;7.06;56.98;103877.66;4966597;28;20422;-71
2021/12/18 04:54:31;;;;;;;3.92;0.35;;;;;;;7.15;56.96;103872.66;4968322;28;20073;-68
2021/12/18 04:56:57;;;;;;;0.47;0.20;;;;;;;7.14;56.92;103870.03;4981963;28;20544;-67
2021/12/18 04:59:23;;;;;;;7.20;0.30;;;;;;;6.79;58.03;103868.38;4981141;28;20038;-66
2021/12/18 05:01:50;;;;;;;1.10;0.20;;;;;;;6.83;57.65;103871.94;4999475;28;20105;-69
2021/12/18 05:04:16;;;;;;;2.08;0.30;;;;;;;7.05;57.06;103868.09;4985235;28;20038;-72
2021/12/18 05:06:45;;;;;;;2.25;0.35;;;;;;;7.14;56.94;103868.31;4979065;28;20037;-71
2021/12/18 05:09:12;;;;;;;2.70;0.28;;;;;;;6.78;58.26;103866.63;4999823;28;20473;-69
2021/12/18 05:11:39;;;;;;;12.02;0.70;;;;;;;7.14;56.98;103870.03;4998857;28;20065;-73
2021/12/18 05:14:04;;;;;;;1.00;0.45;;;;;;;7.05;56.91;103860.31;4999989;28;20049;-72
2021/12/18 05:16:30;;;;;;;7.53;0.50;;;;;;;7.07;57.09;103856.88;4983769;28;20325;-74
2021/12/18 05:18:55;;;;;;;1.92;0.40;;;;;;;7.22;56.77;103866.78;4999029;28;20103;-72
2021/12/18 05:21:21;;;;;;;5.40;0.30;;;;;;;7.07;57.01;103863.81;5000272;28;20038;-72
2021/12/18 05:23:47;;;;;;;1.15;0.38;;;;;;;7.18;56.79;103861.47;5002256;28;20038;-74
2021/12/18 05:26:12;;;;;;;2.33;0.22;;;;;;;7.01;57.17;103859.34;4998897;28;20036;-72
2021/12/18 05:28:38;;;;;;;2.65;0.30;;;;;;;7.18;56.77;103866.66;4977304;28;20145;-73
2021/12/18 05:31:03;;;;;;;2.72;0.30;;;;;;;7.20;56.84;103870.16;4984968;28;20045;-74
2021/12/18 05:33:29;;;;;;;5.32;0.60;;;;;;;7.14;56.82;103868.31;4982060;28;20141;-73
2021/12/18 05:35:54;;;;;;;4.57;0.40;;;;;;;7.10;56.89;103863.88;4983815;28;20034;-76
2021/12/18 05:38:20;;;;;;;5.65;0.85;;;;;;;6.92;57.65;103864.34;4999519;28;20096;-78
2021/12/18 05:40:45;;;;;;;11.02;1.50;;;;;;;6.86;57.86;103866.78;4978459;28;20033;-74
2021/12/18 05:43:11;;;;;;;5.75;0.98;;;;;;;6.59;58.78;103856.63;4980976;28;20541;-72
2021/12/18 05:45:37;;;;;;;3.88;0.98;;;;;;;7.02;57.58;103857.63;4998953;28;20646;-73
2021/12/18 05:48:04;;;;;;;6.13;0.98;;;;;;;7.08;57.36;103863.84;4996982;28;20103;-70
2021/12/18 05:50:29;;;;;;;8.13;0.90;;;;;;;6.87;58.07;103864.22;5000506;28;20069;-70
2021/12/18 05:52:57;;;;;;;5.32;0.88;;;;;;;7.10;57.33;103863.88;4980395;28;20065;-76
2021/12/18 05:55:25;;;;;;;6.43;1.20;;;;;;;7.16;57.24;103863.16;4979282;28;20128;-73
2021/12/18 05:57:50;;;;;;;9.50;0.52;;;;;;;7.16;56.95;103860.56;4981566;28;20050;-71
2021/12/18 06:00:16;;;;;;;5.22;1.08;;;;;;;7.02;57.67;103860.22;4964485;28;20037;-72
2021/12/18 06:02:42;;;;;;;2.25;0.35;;;;;;;7.16;56.96;103860.56;4998223;28;20684;-73
2021/12/18 06:05:08;;;;;;;4.75;0.60;;;;;;;7.03;57.52;103862.00;5004536;28;20022;-71
2021/12/18 06:07:55;;;;;;;4.65;0.40;;;;;;;7.22;57.03;103864.16;5001687;28;20672;-72
2021/12/18 06:10:23;;;;;;;3.25;0.20;;;;;;;7.19;56.83;103861.47;4999850;28;20148;-72
2021/12/18 06:12:49;;;;;;;4.22;0.60;;;;;;;7.13;57.33;103858.72;4995853;28;20046;-72
2021/12/18 06:15:15;;;;;;;3.50;0.30;;;;;;;7.22;57.01;103858.06;4999070;28;20038;-69
2021/12/18 06:17:40;;;;;;;2.35;0.50;;;;;;;7.10;57.44;103853.47;4994872;28;20060;-71
2021/12/18 06:20:07;;;;;;;2.88;0.55;;;;;;;7.07;57.41;103854.28;4982444;28;20038;-70
2021/12/18 06:22:32;;;;;;;2.80;0.47;;;;;;;7.11;57.32;103855.25;4981307;28;20042;-72
2021/12/18 06:24:58;;;;;;;4.22;0.43;;;;;;;7.13;57.41;103858.72;4996069;28;20513;-70
2021/12/18 06:27:25;;;;;;;2.88;0.30;;;;;;;6.79;58.13;103855.38;4998657;28;20041;-72
2021/12/18 06:29:51;;;;;;;2.10;0.40;;;;;;;6.94;57.64;103854.84;4995715;28;20932;-72
2021/12/18 06:32:16;;;;;;;2.15;0.20;;;;;;;6.94;57.73;103857.44;4965948;28;20049;-74
2021/12/18 06:34:42;;;;;;;7.43;0.73;;;;;;;6.99;57.34;103854.97;4983158;28;20421;-75
2021/12/18 06:37:07;;;;;;;4.25;1.13;;;;;;;7.00;57.08;103851.50;4999663;28;20498;-74
2021/12/18 06:39:33;;;;;;;2.80;1.10;;;;;;;6.92;57.55;103851.34;4982101;28;20609;-71
2021/12/18 06:41:58;;;;;;;4.45;0.60;;;;;;;7.20;56.68;103847.66;4976999;28;20729;-74
2021/12/18 06:44:24;;;;;;;4.85;0.65;;;;;;;7.24;56.64;103854.63;4984219;28;20034;-74
2021/12/18 06:46:49;;;;;;;7.97;1.23;;;;;;;7.08;57.12;103856.03;4966429;28;20045;-74
2021/12/18 06:49:15;;;;;;;5.30;1.27;;;;;;;6.85;57.80;103847.72;4969143;28;20034;-74
2021/12/18 06:51:41;;;;;;;2.60;0.95;;;;;;;7.01;57.61;103859.34;4997883;28;20061;-69
2021/12/18 06:54:06;;;;;;;6.07;0.73;;;;;;;6.84;57.82;103851.19;4997209;28;20034;-68
2021/12/18 06:56:32;;;;;;;4.90;0.47;;;;;;;7.01;56.98;103858.47;4998259;28;20040;-67
2021/12/18 06:58:57;;;;;;;4.07;0.40;;;;;;;6.93;57.47;103855.69;4996148;28;20037;-68
2021/12/18 07:01:23;;;;;;;4.88;0.90;;;;;;;6.81;57.59;103850.22;4966923;28;20038;-70
2021/12/18 07:03:48;;;;;;;10.50;0.98;;;;;;;7.04;57.23;103858.53;4997248;28;20042;-67
2021/12/18 07:06:14;;;;;;;10.27;1.40;;;;;;;7.01;57.36;103859.34;4979246;28;20034;-68
2021/12/18 07:08:39;;;;;;;3.00;0.30;;;;;;;7.01;57.16;103859.34;4997086;28;20624;-68
2021/12/18 07:11:05;;;;;;;9.63;1.00;;;;;;;7.01;57.39;103863.69;4980805;28;20044;-67
2021/12/18 07:13:30;;;;;;;7.28;0.80;;;;;;;7.07;57.16;103858.63;4979887;28;20056;-69
2021/12/18 07:15:56;;;;;;;8.43;0.73;;;;;;;7.13;56.95;103858.72;4995711;28;20710;-71
2021/12/18 07:18:21;;;;;;;3.63;0.82;;;;;;;7.06;56.91;103864.66;4979064;28;20034;-71
2021/12/18 07:20:48;;;;;;;13.07;1.13;;;;;;;7.00;57.04;103864.50;5002316;28;20433;-71
2021/12/18 07:23:14;;;;;;;4.78;0.63;;;;;;;6.68;57.85;103865.50;5006354;28;20049;-70
2021/12/18 07:25:39;;;;;;;4.10;0.60;;;;;;;6.64;57.82;103855.91;4973282;28;20465;-69
2021/12/18 07:28:05;;;;;;;2.75;0.73;;;;;;;7.04;56.89;103868.94;4998049;28;20048;-69
2021/12/18 07:30:31;;;;;;;2.85;0.50;;;;;;;7.07;56.44;103859.50;5001322;28;20049;-67
2021/12/18 07:32:58;;;;;;;5.85;0.75;;;;;;;6.81;57.26;103869.28;4994988;28;20117;-69
2021/12/18 07:35:24;;;;;;;5.05;0.50;;;;;;;7.05;56.39;103857.69;5001670;28;20036;-69
2021/12/18 07:37:50;;;;;;;3.70;0.30;;;;;;;7.01;56.07;103861.94;4975919;28;20155;-69
2021/12/18 07:40:19;;;;;;;2.58;0.22;;;;;;;6.72;57.09;103861.28;4982842;28;20076;-68
2021/12/18 07:42:44;;;;;;;3.20;0.70;;;;;;;6.52;57.91;103857.31;4973675;28;20128;-69
2021/12/18 07:45:11;;;;;;;3.88;0.30;;;;;;;6.96;56.65;103865.31;4999167;28;20113;-68
2021/12/18 07:47:37;;;;;;;4.13;0.20;;;;;;;7.03;56.35;103857.66;4982161;28;20042;-69
2021/12/18 07:50:07;;;;;;;0.55;0.43;;;;;;;6.99;56.50;103860.16;4968130;28;20077;-69
2021/12/18 07:52:33;;;;;;;2.17;0.10;;;;;;;6.77;57.20;103858.78;4998301;28;20046;-69
2021/12/18 07:54:58;;;;;;;2.53;0.17;;;;;;;7.09;56.19;103865.59;5002028;28;20035;-69
2021/12/18 07:57:24;;;;;;;4.03;0.73;;;;;;;7.18;55.92;103872.75;4982398;28;20091;-67
2021/12/18 07:59:49;;;;;;;1.48;0.25;;;;;;;6.73;57.73;103857.84;5000088;28;20038;-69
2021/12/18 08:02:15;;;;;;;2.88;0.43;;;;;;;7.06;56.77;103867.25;4966934;28;20124;-69
2021/12/18 08:04:40;;;;;;;1.75;0.75;;;;;;;7.09;56.79;103864.75;4982813;28;20054;-70
2021/12/18 08:07:05;;;;;;;3.17;0.50;;;;;;;7.05;56.73;103860.31;4997259;28;20169;-69
2021/12/18 08:09:31;;;;;;;5.97;0.75;;;;;;;6.73;57.97;103868.25;5002081;28;20045;-68
2021/12/18 08:11:57;;;;;;;7.40;1.08;;;;;;;6.87;57.20;103865.97;5000302;28;20085;-68
2021/12/18 08:14:22;;;;;;;8.18;0.85;;;;;;;6.97;57.20;103867.03;5000278;28;20044;-68
2021/12/18 08:16:48;;;;;;;2.15;0.38;;;;;;;6.99;57.18;103865.34;4997723;28;20041;-68
2021/12/18 08:19:15;;;;;;;3.15;0.82;;;;;;;7.03;57.05;103862.00;5001292;28;20061;-67
2021/12/18 08:21:40;;;;;;;4.22;0.55;;;;;;;7.00;57.01;103857.59;4963189;28;20069;-68
2021/12/18 08:24:06;;;;;;;5.45;1.00;;;;;;;7.03;56.57;103864.59;4997326;28;20033;-67
2021/12/18 08:26:31;;;;;;;11.98;0.70;;;;;;;6.85;57.44;103862.44;4991866;28;20749;-66
2021/12/18 08:28:57;;;;;;;7.60;0.40;;;;;;;7.14;56.54;103860.50;4997239;28;20128;-68
2021/12/18 08:31:22;;;;;;;7.97;0.50;;;;;;;7.11;56.56;103865.66;4995789;28;20481;-68
2021/12/18 08:33:48;;;;;;;7.78;0.60;;;;;;;7.09;56.33;103857.81;4999970;28;20053;-68
2021/12/18 08:36:14;;;;;;;9.73;0.63;;;;;;;7.07;56.22;103859.50;4997758;28;20030;-68
2021/12/18 08:38:40;;;;;;;4.63;0.82;;;;;;;7.12;56.19;103854.38;4996303;28;20595;-68
2021/12/18 08:41:06;;;;;;;4.05;0.88;;;;;;;7.04;56.56;103863.72;4999666;28;20115;-68
2021/12/18 08:43:31;;;;;;;8.63;1.17;;;;;;;7.20;56.34;103868.44;4996623;28;20073;-69
2021/12/18 08:45:57;;;;;;;4.93;1.50;;;;;;;7.42;55.62;103866.28;4993558;28;20117;-68
2021/12/18 08:48:25;;;;;;;15.15;1.98;;;;;;;7.37;55.53;103867.94;4999488;28;20034;-68
2021/12/18 08:50:51;;;;;;;10.15;1.42;;;;;;;7.42;55.51;103862.00;4997589;28;20572;-68
2021/12/18 08:53:16;;;;;;;10.52;1.08;;;;;;;7.48;55.37;103861.22;4998715;28;20148;-69
2021/12/18 08:55:42;;;;;;;4.85;1.10;;;;;;;7.49;55.71;103860.41;4995515;28;20542;-69
2021/12/18 08:58:08;;;;;;;11.10;1.25;;;;;;;7.54;55.15;103861.34;4981642;28;20095;-68
2021/12/18 09:00:34;;;;;;;6.53;0.50;;;;;;;7.49;54.83;103853.47;4997668;28;20061;-68
2021/12/18 09:03:00;;;;;;;7.57;0.70;;;;;;;7.50;55.25;103849.13;4999024;28;20046;-68
2021/12/18 09:05:28;;;;;;;13.50;1.92;;;;;;;7.38;55.17;103854.97;4999002;28;20049;-68
2021/12/18 09:07:54;;;;;;;13.50;2.22;;;;;;;7.60;54.19;103847.59;4995826;28;20859;-69
2021/12/18 09:10:20;;;;;;;14.88;1.65;;;;;;;7.65;54.23;103843.41;4998599;28;20065;-70
2021/12/18 09:12:46;;;;;;;4.18;0.55;;;;;;;7.58;54.40;103846.69;4981387;28;20509;-70
2021/12/18 09:15:12;;;;;;;12.75;2.00;;;;;;;7.55;54.30;103852.72;4995512;28;20064;-69
2021/12/18 09:17:38;;;;;;;6.32;1.35;;;;;;;7.62;54.10;103853.72;4994672;28;20052;-69
2021/12/18 09:20:04;;;;;;;19.98;1.90;;;;;;;7.56;54.04;103849.28;4998387;28;20045;-69
2021/12/18 09:22:30;;;;;;;7.60;1.23;;;;;;;7.62;53.89;103848.53;4975252;28;20123;-72
2021/12/18 09:24:56;;;;;;;9.80;1.30;;;;;;;7.78;53.92;103844.47;4995491;28;20490;-69
2021/12/18 09:27:22;;;;;;;11.38;1.77;;;;;;;7.81;53.63;103844.56;4957325;28;20488;-69
2021/12/18 09:29:48;;;;;;;11.13;0.80;;;;;;;7.48;54.32;103856.03;4994443;28;20068;-69
2021/12/18 09:32:13;;;;;;;15.10;1.17;;;;;;;7.63;53.56;103848.56;4996220;28;20470;-71
2021/12/18 09:34:39;;;;;;;10.57;1.20;;;;;;;7.56;53.83;103854.50;4977948;28;20065;-72
2021/12/18 09:37:04;;;;;;;8.00;1.60;;;;;;;7.78;52.90;103852.28;4994804;28;20301;-69
2021/12/18 09:39:30;;;;;;;7.85;1.00;;;;;;;7.91;52.25;103849.06;4996099;28;20030;-69
2021/12/18 09:41:56;;;;;;;10.85;0.93;;;;;;;8.15;51.97;103846.91;4998238;28;20730;-70
2021/12/18 09:44:28;;;;;;;6.00;0.73;;;;;;;8.05;52.50;103855.44;4996782;28;20045;-70
2021/12/18 09:46:54;;;;;;;13.07;0.93;;;;;;;8.22;51.83;103852.25;4993696;28;20053;-70
2021/12/18 09:49:20;;;;;;;3.83;0.52;;;;;;;8.13;51.91;103853.81;4996709;28;20136;-70
2021/12/18 09:51:48;;;;;;;9.80;1.42;;;;;;;7.78;53.22;103845.38;4994630;28;20144;-69
2021/12/18 09:54:15;;;;;;;12.30;2.78;;;;;;;7.62;53.71;103849.38;4996557;28;20088;-69
2021/12/18 10:15:16;;;;;;;13.63;2.15;;;;;;;7.23;54.87;103818.22;5031074;27;1311736;-71
2021/12/18 10:17:45;;;;;;;9.00;1.08;;;;;;;7.78;53.50;103818.44;5045074;28;20063;-71
2021/12/18 10:20:10;;;;;;;10.38;1.63;;;;;;;7.69;54.05;103814.84;5045479;28;20037;-69
2021/12/18 10:22:48;;;;;;;5.78;1.02;;;;;;;7.79;53.84;103807.19;5046118;28;20786;-69
2021/12/18 10:25:19;;;;;;;8.02;1.40;;;;;;;7.66;53.84;103801.75;5043697;28;20447;-70
2021/12/18 10:28:14;;;;;;;6.30;2.00;;;;;;;7.27;54.49;103807.91;5045240;28;20037;-68
2021/12/18 10:30:46;;;;;;;4.50;0.70;;;;;;;7.22;55.27;103796.53;5038492;28;20072;-71
2021/12/18 10:33:13;;;;;;;12.25;0.82;;;;;;;7.48;54.91;103794.44;5046547;28;20036;-70
2021/12/18 10:35:50;;;;;;;4.70;0.88;;;;;;;7.54;54.45;103783.28;5028999;28;20072;-70
2021/12/18 10:38:50;;;;;;;8.63;1.48;;;;;;;7.76;53.76;103795.00;5009986;28;20463;-69
2021/12/18 10:41:26;;;;;;;9.18;0.90;;;;;;;7.70;53.87;103780.13;5042982;28;20150;-69
2021/12/18 10:44:01;;;;;;;8.05;1.27;;;;;;;7.35;54.31;103781.16;5043643;28;20413;-69
2021/12/18 10:46:28;;;;;;;8.25;0.50;;;;;;;7.37;54.64;103779.47;5042409;28;20140;-69
2021/12/18 10:49:08;;;;;;;10.77;0.68;;;;;;;7.37;54.37;103775.13;5043352;28;20060;-69
2021/12/18 10:51:35;;;;;;;8.43;0.98;;;;;;;7.38;54.98;103776.91;5043119;28;20176;-71
2021/12/18 10:54:06;;;;;;;12.05;1.40;;;;;;;7.45;54.67;103772.69;5043060;28;20052;-70
2021/12/18 10:56:41;;;;;;;10.90;1.25;;;;;;;7.42;54.39;103773.50;5043531;28;20517;-70
2021/12/18 10:59:23;;;;;;;3.15;1.02;;;;;;;7.58;54.48;103774.72;5043589;28;20079;-69
2021/12/18 11:01:53;;;;;;;2.08;0.47;;;;;;;7.70;54.02;103764.50;5043981;28;20151;-71
2021/12/18 11:04:26;;;;;;;7.82;1.02;;;;;;;7.40;54.49;103771.69;5026120;28;20045;-71
2021/12/18 11:06:51;;;;;;;8.82;1.52;;;;;;;7.98;53.49;103759.81;5044298;28;20068;-70
2021/12/18 11:09:24;;;;;;;10.73;1.10;;;;;;;7.94;53.28;103758.00;5028530;28;20116;-70
2021/12/18 11:14:41;;;;;;;7.72;1.17;;;;;;;7.79;54.60;103747.31;5036266;28;20049;-70
2021/12/18 11:17:13;;;;;;;7.30;0.98;;;;;;;7.69;54.45;103752.34;5029159;28;20060;-70
2021/12/18 11:19:43;;;;;;;7.43;1.40;;;;;;;7.56;54.49;103750.38;5027811;28;20047;-70
2021/12/18 11:22:15;;;;;;;5.55;1.00;;;;;;;7.71;54.29;103755.88;5017256;28;20541;-70
2021/12/18 11:24:55;;;;;;;9.10;1.67;;;;;;;8.16;53.26;103754.03;5026933;28;20065;-70
2021/12/18 11:27:21;;;;;;;11.70;1.13;;;;;;;7.74;53.64;103752.44;5028730;28;20037;-69
2021/12/18 11:29:59;;;;;;;7.80;1.40;;;;;;;8.09;52.92;103753.06;5026570;28;20790;-70
2021/12/18 11:32:27;;;;;;;12.23;0.57;;;;;;;8.22;52.48;103742.81;5027733;28;20043;-70
2021/12/18 11:34:54;;;;;;;5.85;0.98;;;;;;;7.99;52.93;103739.84;5026739;28;20037;-70
2021/12/18 11:37:22;;;;;;;6.43;0.77;;;;;;;8.09;52.98;103742.63;5014354;28;20063;-70
2021/12/18 11:39:50;;;;;;;12.02;1.25;;;;;;;8.13;52.76;103733.97;5024343;28;20045;-70
2021/12/18 11:42:17;;;;;;;12.07;2.00;;;;;;;8.29;52.67;103726.41;5030240;28;20045;-71
2021/12/18 11:44:45;;;;;;;8.10;1.67;;;;;;;8.04;53.50;103723.41;5029745;28;20041;-70
2021/12/18 11:47:28;;;;;;;6.93;0.60;;;;;;;8.23;52.88;103723.75;5030973;28;20033;-70
2021/12/18 11:49:59;;;;;;;13.60;2.92;;;;;;;8.29;52.72;103713.38;5012468;28;20103;-70
2021/12/18 11:52:28;;;;;;;23.75;5.10;;;;;;;7.17;54.73;103712.28;5032424;28;20033;-71
2021/12/18 11:55:00;;;;;;;6.32;1.33;;;;;;;7.51;54.83;103700.81;5027566;28;20040;-70
2021/12/18 11:57:48;;;;;;;10.13;2.67;;;;;;;7.60;54.62;103707.03;5028142;28;20525;-72
2021/12/18 12:00:21;;;;;;;10.43;1.33;;;;;;;7.72;54.47;103702.94;5021343;28;20054;-69
2021/12/18 12:02:58;;;;;;;10.48;2.33;;;;;;;7.33;55.65;103700.44;5029346;28;20033;-70
2021/12/18 12:05:39;;;;;;;17.67;1.52;;;;;;;7.36;55.37;103700.53;5027675;28;20036;-70
2021/12/18 12:08:29;;;;;;;10.43;1.90;;;;;;;7.39;55.14;103702.31;5029874;28;20036;-70
2021/12/18 12:11:17;;;;;;;11.10;2.95;;;;;;;7.46;54.86;103701.56;5029811;28;20145;-70
2021/12/18 12:13:58;;;;;;;8.93;0.95;;;;;;;7.21;55.58;103714.09;5015482;28;20147;-69
2021/12/18 12:16:42;;;;;;;8.35;1.50;;;;;;;6.85;56.31;103714.25;5017377;28;20126;-71
2021/12/18 12:19:10;;;;;;;7.95;1.00;;;;;;;7.28;55.46;103710.78;5011193;28;20228;-71
2021/12/18 12:21:41;;;;;;;5.32;1.23;;;;;;;7.14;55.58;103707.03;5020394;28;20353;-70
2021/12/18 12:24:08;;;;;;;10.10;1.60;;;;;;;7.02;55.67;103714.56;5025002;28;20037;-71
2021/12/18 12:26:34;;;;;;;3.70;0.80;;;;;;;6.93;55.96;103714.41;5025821;28;20056;-69
2021/12/18 12:29:00;;;;;;;9.55;1.00;;;;;;;6.96;56.28;103715.34;5028157;28;20465;-71
2021/12/18 12:31:25;;;;;;;7.47;1.30;;;;;;;7.10;55.65;103706.09;5029262;28;20033;-71
2021/12/18 12:33:51;;;;;;;6.38;0.88;;;;;;;6.91;56.02;103707.44;5012600;28;20381;-71
2021/12/18 12:36:25;;;;;;;5.65;1.13;;;;;;;7.27;55.55;103705.56;5027799;28;20541;-71
2021/12/18 12:39:01;;;;;;;3.28;0.52;;;;;;;6.94;56.34;103697.97;5027259;28;20033;-71